Time;durP1;ratioP1;P1;durP2;ratioP2;P2;SDS_P1;SDS_P2;PMS_P1;PMS_P2;Temp;Humidity;BMP_temperature;BMP_pressure;BME280_temperature;BME280_humidity;BME280_pressure;Samples;Min_cycle;Max_cycle;Signal;HPM_P1;HPM_P2
2022/01/12 00:00:25;;;;;;;;;35.00;28.50;;;;;2.26;84.86;103129.03;5001403;28;45436;-76
2022/01/12 00:02:51;;;;;;;;;27.00;24.75;;;;;2.25;83.77;103142.22;5001704;28;45506;-76
2022/01/12 00:05:18;;;;;;;;;25.00;22.75;;;;;2.25;84.44;103121.22;5007561;28;48094;-76
2022/01/12 00:07:43;;;;;;;;;34.00;29.50;;;;;2.20;83.96;103117.91;5000960;28;45364;-76
2022/01/12 00:10:09;;;;;;;;;30.25;27.00;;;;;2.10;84.54;103118.25;5005961;28;45261;-76
2022/01/12 00:12:35;;;;;;;;;28.50;26.75;;;;;2.14;84.45;103142.63;5000974;28;45260;-76
2022/01/12 00:15:00;;;;;;;;;33.75;29.50;;;;;2.14;84.19;103138.25;5001032;28;46576;-76
2022/01/12 00:17:25;;;;;;;;;32.75;29.25;;;;;2.03;84.33;103121.22;5001965;28;45336;-76
2022/01/12 00:19:51;;;;;;;;;26.00;24.50;;;;;2.05;85.26;103124.59;5001213;28;45345;-76
2022/01/12 00:22:16;;;;;;;;;35.50;31.25;;;;;2.08;84.71;103138.47;5000976;28;45302;-75
2022/01/12 00:33:12;;;;;;;;;29.50;28.50;;;;;2.00;85.13;103127.41;5001266;28;45273;-76
2022/01/12 00:35:43;;;;;;;;;31.25;29.50;;;;;2.14;85.43;103134.75;5000871;28;46053;-76
2022/01/12 00:38:10;;;;;;;;;28.00;27.50;;;;;2.02;84.70;103128.22;5000591;28;45436;-77
2022/01/12 00:40:41;;;;;;;;;33.75;27.75;;;;;2.02;84.67;103133.47;5000573;28;45467;-76
2022/01/12 00:43:06;;;;;;;;;23.50;22.50;;;;;2.03;84.78;103137.78;5000630;28;47459;-76
2022/01/12 00:45:34;;;;;;;;;30.75;24.25;;;;;2.09;85.00;103149.81;5000415;28;45692;-75
2022/01/12 00:47:59;;;;;;;;;30.00;28.25;;;;;2.12;84.90;103153.19;5000412;28;45347;-76
2022/01/12 00:50:24;;;;;;;;;27.75;24.75;;;;;2.07;85.70;103156.91;5000578;28;45505;-76
2022/01/12 00:52:50;;;;;;;;;30.50;27.75;;;;;1.98;85.93;103153.69;5000518;28;45297;-76
2022/01/12 00:55:16;;;;;;;;;28.00;22.75;;;;;2.02;86.35;103164.94;4991704;28;45428;-76
2022/01/12 00:57:42;;;;;;;;;34.00;29.50;;;;;2.05;85.33;103166.59;5016147;28;45391;-76
2022/01/12 01:00:09;;;;;;;;;35.50;32.75;;;;;2.09;86.53;103166.41;5000298;28;45336;-75
2022/01/12 01:02:34;;;;;;;;;30.75;29.50;;;;;2.13;84.87;103172.41;5000236;28;45324;-76
2022/01/12 01:05:01;;;;;;;;;35.75;31.25;;;;;2.09;85.02;103160.31;5000147;28;46225;-76
2022/01/12 01:07:26;;;;;;;;;34.25;28.75;;;;;2.05;85.32;103156.97;5000244;28;45348;-76
2022/01/12 01:10:02;;;;;;;;;30.50;30.50;;;;;2.06;85.54;103158.66;5000063;28;45832;-76
2022/01/12 01:12:27;;;;;;;;;37.75;34.75;;;;;2.04;86.25;103159.63;4988783;28;47580;-76
2022/01/12 01:15:11;;;;;;;;;38.50;33.75;;;;;2.09;85.47;103165.56;5000026;28;45385;-75
2022/01/12 01:25:37;;;;;;;;;29.00;27.00;;;;;2.30;85.22;103187.50;4999598;28;45426;-76
2022/01/12 01:28:04;;;;;;;;;28.00;26.00;;;;;2.33;85.78;103192.63;5000574;28;45238;-76
2022/01/12 01:30:31;;;;;;;;;29.25;24.75;;;;;2.32;85.47;103188.31;5000059;28;45252;-76
2022/01/12 01:33:04;;;;;;;;;27.25;24.00;;;;;2.31;84.96;103183.13;5012203;28;47048;-75
2022/01/12 01:35:31;;;;;;;;;25.75;24.00;;;;;2.28;85.76;103191.97;4999444;28;45357;-76
2022/01/12 01:37:58;;;;;;;;;33.75;29.25;;;;;2.20;85.04;103194.00;4999600;28;47645;-76
2022/01/12 01:40:24;;;;;;;;;25.50;25.00;;;;;2.26;85.94;103214.78;4999934;28;45482;-75
2022/01/12 01:53:33;;;;;;;;;25.50;22.75;;;;;2.09;85.90;103223.28;4999436;28;45367;-76
2022/01/12 01:55:58;;;;;;;;;27.00;21.50;;;;;2.19;85.93;103223.81;5014316;28;46953;-76
2022/01/12 01:58:23;;;;;;;;;23.50;23.25;;;;;2.07;85.43;103202.38;5000316;28;45212;-76
2022/01/12 02:00:49;;;;;;;;;24.25;23.00;;;;;2.06;86.07;103205.06;4999459;28;45257;-77
2022/01/12 02:03:15;;;;;;;;;29.75;24.00;;;;;2.19;85.57;103235.16;4999333;28;45223;-76
2022/01/12 02:05:42;;;;;;;;;24.00;23.00;;;;;2.13;86.52;103224.91;4999759;28;45996;-76
2022/01/12 02:08:08;;;;;;;;;27.75;24.00;;;;;2.18;85.00;103243.94;4999012;28;45382;-76
2022/01/12 02:10:34;;;;;;;;;24.75;23.50;;;;;2.00;85.17;103229.72;4999075;28;45336;-76
2022/01/12 02:13:00;;;;;;;;;27.00;23.00;;;;;1.98;85.82;103227.16;4994967;28;45600;-76
2022/01/12 02:15:26;;;;;;;;;21.75;20.25;;;;;2.06;85.50;103250.47;4999207;28;45356;-76
2022/01/12 02:18:17;;;;;;;;;27.75;23.50;;;;;1.93;85.22;103242.22;4990503;28;45261;-76
2022/01/12 02:40:25;;;;;;;;;27.00;20.00;;;;;1.85;86.31;103218.88;4995182;28;45397;-76
2022/01/12 02:43:06;;;;;;;;;27.00;23.25;;;;;1.93;85.61;103220.38;4998908;28;45471;-76
2022/01/12 02:51:27;;;;;;;;;21.50;18.25;;;;;1.88;85.84;103203.03;4998686;28;45471;-76
2022/01/12 02:53:53;;;;;;;;;25.50;22.75;;;;;1.83;86.71;103207.56;4996581;28;45381;-76
2022/01/12 02:56:22;;;;;;;;;25.25;24.25;;;;;1.83;86.68;103210.19;4998557;28;45654;-77
2022/01/12 02:58:49;;;;;;;;;27.50;22.00;;;;;1.97;85.88;103208.84;4998706;28;45198;-76
2022/01/12 03:03:57;;;;;;;;;29.75;24.50;;;;;1.99;86.96;103186.03;4998635;28;45480;-75
2022/01/12 03:06:34;;;;;;;;;21.00;18.25;;;;;1.94;86.58;103180.13;5013567;28;45805;-76
2022/01/12 03:09:01;;;;;;;;;28.75;23.50;;;;;1.86;86.61;103167.28;4998398;28;46012;-76
2022/01/12 03:11:29;;;;;;;;;27.25;23.00;;;;;2.00;86.35;103186.00;4998336;28;45729;-77
2022/01/12 03:13:55;;;;;;;;;25.50;21.75;;;;;2.03;86.62;103185.00;4998580;28;45417;-77
2022/01/12 03:16:24;;;;;;;;;26.25;22.00;;;;;2.01;86.36;103169.31;4997904;28;45387;-76
2022/01/12 03:18:52;;;;;;;;;27.00;22.75;;;;;2.04;86.59;103176.25;5000933;28;45352;-77
2022/01/12 03:21:21;;;;;;;;;28.25;24.75;;;;;2.01;86.21;103187.69;4998175;28;45344;-76
2022/01/12 03:23:46;;;;;;;;;29.25;24.50;;;;;2.08;86.34;103205.81;4998557;28;45522;-76
2022/01/12 03:26:12;;;;;;;;;17.50;14.75;;;;;2.08;86.76;103198.81;5001539;28;45297;-76
2022/01/12 03:28:39;;;;;;;;;26.50;22.25;;;;;2.09;87.37;103202.28;5002362;28;45906;-77
2022/01/12 03:36:28;;;;;;;;;27.25;23.00;;;;;2.04;86.85;103199.84;4997955;28;45326;-76
2022/01/12 03:39:03;;;;;;;;;29.50;27.25;;;;;2.08;88.09;103217.19;4998431;28;45948;-76
2022/01/12 03:41:34;;;;;;;;;26.75;24.50;;;;;2.01;87.71;103208.69;4997942;28;45403;-76
2022/01/12 03:44:00;;;;;;;;;31.25;24.75;;;;;2.05;87.20;103209.44;4991647;28;45606;-76
2022/01/12 03:46:28;;;;;;;;;21.75;19.25;;;;;2.06;87.28;103216.38;5001816;28;45448;-76
2022/01/12 03:48:53;;;;;;;;;31.00;24.50;;;;;1.97;87.67;103203.59;5001039;28;46333;-76
2022/01/12 03:51:18;;;;;;;;;21.00;17.00;;;;;2.05;86.79;103225.16;5000141;28;45396;-76
2022/01/12 03:53:44;;;;;;;;;21.00;18.00;;;;;1.94;86.41;103208.97;5001582;28;45326;-76
2022/01/12 03:56:10;;;;;;;;;22.50;21.00;;;;;2.00;86.09;103227.97;4990027;28;46178;-76
2022/01/12 03:58:36;;;;;;;;;22.50;21.25;;;;;1.97;85.71;103212.34;5001879;28;45388;-76
2022/01/12 04:01:01;;;;;;;;;28.00;19.00;;;;;1.95;87.00;103213.31;4997535;28;45280;-75
2022/01/12 04:03:28;;;;;;;;;21.50;17.00;;;;;1.88;86.66;103218.78;4986052;28;45319;-76
2022/01/12 04:08:37;;;;;;;;;21.50;19.25;;;;;2.00;85.71;103237.59;4999708;28;45253;-77
2022/01/12 04:11:03;;;;;;;;;20.25;17.00;;;;;1.96;86.49;103231.63;5001256;28;45287;-76
2022/01/12 04:13:30;;;;;;;;;21.25;17.25;;;;;2.03;86.25;103231.41;5001152;28;45306;-76
2022/01/12 04:16:00;;;;;;;;;17.25;17.25;;;;;2.03;86.11;103244.50;5001031;28;45201;-76
2022/01/12 04:18:25;;;;;;;;;21.25;19.25;;;;;1.88;86.05;103249.38;5000282;28;45959;-77
2022/01/12 04:20:51;;;;;;;;;25.25;21.75;;;;;2.02;85.25;103272.50;5000945;28;45435;-76
2022/01/12 04:23:19;;;;;;;;;25.25;21.00;;;;;1.93;85.15;103270.19;5001094;28;45380;-76
2022/01/12 04:25:51;;;;;;;;;21.00;21.00;;;;;1.92;86.37;103281.63;5000557;28;45474;-76
2022/01/12 04:28:18;;;;;;;;;24.50;22.00;;;;;1.86;86.00;103259.91;5001389;28;46190;-76
2022/01/12 04:30:45;;;;;;;;;22.00;18.00;;;;;1.90;85.36;103279.03;4993805;28;45658;-77
2022/01/12 04:33:10;;;;;;;;;20.75;18.25;;;;;1.88;85.81;103270.38;4981629;28;45266;-76
2022/01/12 04:35:44;;;;;;;;;26.50;22.50;;;;;1.83;85.76;103267.91;4999680;28;45560;-75
2022/01/12 04:38:10;;;;;;;;;22.25;17.75;;;;;1.81;85.26;103267.13;5000701;28;45459;-76
2022/01/12 04:40:36;;;;;;;;;27.75;20.50;;;;;1.72;86.49;103254.31;5000626;28;45638;-76
2022/01/12 04:43:01;;;;;;;;;22.25;18.75;;;;;1.66;85.73;103249.28;5000774;28;45368;-76
2022/01/12 04:45:40;;;;;;;;;24.50;22.50;;;;;1.77;86.21;103273.38;4989228;28;46006;-76
2022/01/12 04:50:38;;;;;;;;;20.50;19.50;;;;;1.74;85.95;103278.72;5000526;28;45364;-76
2022/01/12 04:53:04;;;;;;;;;22.00;22.00;;;;;1.70;86.11;103290.22;5000710;28;45332;-76
2022/01/12 04:55:30;;;;;;;;;21.25;18.00;;;;;1.75;86.52;103298.78;5000493;28;45464;-76
2022/01/12 04:57:55;;;;;;;;;19.00;19.00;;;;;1.75;85.30;103302.28;5000888;28;45315;-76
2022/01/12 05:00:22;;;;;;;;;24.00;21.75;;;;;1.74;85.66;103297.94;5000522;28;45298;-76
2022/01/12 05:08:33;;;;;;;;;17.50;15.25;;;;;1.74;85.74;103315.44;5000541;28;45255;-76
2022/01/12 05:13:48;;;;;;;;;17.50;15.00;;;;;1.77;85.27;103323.22;5000292;28;45285;-76
2022/01/12 05:16:14;;;;;;;;;16.00;13.50;;;;;1.75;85.76;103317.16;5000078;28;45552;-76
2022/01/12 05:18:42;;;;;;;;;21.25;19.75;;;;;1.60;85.73;103300.16;4998334;28;47085;-76
2022/01/12 05:21:08;;;;;;;;;18.50;15.50;;;;;1.69;85.38;103302.50;5000607;28;45412;-76
2022/01/12 05:23:35;;;;;;;;;18.25;16.00;;;;;1.73;85.26;103319.81;5000281;28;45392;-76
2022/01/12 05:26:00;;;;;;;;;17.00;16.00;;;;;1.66;86.21;103318.31;4999807;28;47371;-76
2022/01/12 05:28:27;;;;;;;;;21.25;18.00;;;;;1.76;85.54;103329.34;4995938;28;47189;-76
2022/01/12 05:30:54;;;;;;;;;20.75;16.00;;;;;1.73;85.85;103321.59;4998647;28;46270;-76
2022/01/12 05:33:20;;;;;;;;;24.00;16.50;;;;;1.80;85.33;103309.13;4999664;28;45319;-76
2022/01/12 05:35:46;;;;;;;;;17.00;17.00;;;;;1.72;85.85;103286.66;4999719;28;45507;-76
2022/01/12 05:38:13;;;;;;;;;19.00;16.50;;;;;1.75;86.34;103296.16;4999491;28;45359;-76
2022/01/12 05:40:46;;;;;;;;;14.75;14.75;;;;;1.83;85.37;103293.28;4989676;28;45368;-76
2022/01/12 05:43:24;;;;;;;;;17.25;17.25;;;;;1.70;85.91;103274.47;4999162;28;45361;-76
2022/01/12 05:45:50;;;;;;;;;22.00;18.50;;;;;1.70;85.60;103291.09;4999464;28;45835;-76
2022/01/12 05:50:41;;;;;;;;;21.00;18.25;;;;;1.73;85.67;103309.34;4999354;28;45265;-76
2022/01/12 05:53:08;;;;;;;;;15.75;13.25;;;;;1.77;85.88;103320.59;4997365;28;45358;-76
2022/01/12 05:55:33;;;;;;;;;14.50;14.25;;;;;1.72;85.31;103297.13;4999431;28;45382;-76
2022/01/12 05:57:59;;;;;;;;;22.25;17.00;;;;;1.77;85.94;103310.94;4997882;28;46336;-76
2022/01/12 06:00:27;;;;;;;;;17.00;16.75;;;;;1.74;85.66;103304.97;5014818;28;45990;-76
2022/01/12 06:02:53;;;;;;;;;18.75;14.00;;;;;1.67;85.20;103304.28;4996865;28;45408;-76
2022/01/12 06:05:20;;;;;;;;;17.00;16.50;;;;;1.69;85.05;103315.59;4992330;28;45450;-76
2022/01/12 06:07:47;;;;;;;;;17.75;17.75;;;;;1.71;85.93;103312.94;4998427;28;46317;-77
2022/01/12 06:10:12;;;;;;;;;20.00;18.00;;;;;1.67;85.10;103319.19;4999019;28;45803;-76
2022/01/12 06:12:39;;;;;;;;;19.50;17.25;;;;;1.67;85.47;103327.91;4999315;28;45392;-76
2022/01/12 06:15:06;;;;;;;;;25.75;22.25;;;;;1.62;85.85;103330.66;4999799;28;45326;-76
2022/01/12 06:17:31;;;;;;;;;40.00;36.50;;;;;1.48;85.55;103304.06;5000449;28;47189;-77
2022/01/12 06:19:57;;;;;;;;;25.00;21.25;;;;;1.42;85.64;103296.41;4999557;28;45268;-77
2022/01/12 06:22:24;;;;;;;;;22.50;20.00;;;;;1.43;85.69;103309.44;4999264;28;45558;-76
2022/01/12 06:24:50;;;;;;;;;23.75;20.75;;;;;1.47;86.37;103302.34;4999023;28;45360;-76
2022/01/12 06:27:17;;;;;;;;;24.00;22.50;;;;;1.43;86.91;103296.34;4997489;28;45348;-77
2022/01/12 06:32:08;;;;;;;;;27.00;21.25;;;;;1.56;86.44;103312.50;4999522;28;45336;-78
2022/01/12 06:34:34;;;;;;;;;23.00;21.00;;;;;1.59;86.34;103329.94;4999108;28;45531;-77
2022/01/12 06:37:00;;;;;;;;;19.25;19.25;;;;;1.59;85.98;103317.66;4994867;28;48015;-77
2022/01/12 06:39:26;;;;;;;;;30.00;25.00;;;;;1.62;86.31;103311.47;4997765;28;45372;-76
2022/01/12 06:41:54;;;;;;;;;17.25;16.00;;;;;1.51;86.14;103310.06;4998668;28;45316;-77
2022/01/12 06:44:21;;;;;;;;;23.75;23.25;;;;;1.51;86.93;103307.44;4998770;28;45363;-76
2022/01/12 06:46:51;;;;;;;;;20.75;19.75;;;;;1.58;86.54;103321.19;4990061;28;47246;-77
2022/01/12 06:49:17;;;;;;;;;22.25;21.75;;;;;1.46;86.84;103311.09;5012479;28;45438;-76
2022/01/12 06:51:45;;;;;;;;;20.00;16.25;;;;;1.35;86.62;103286.09;4983641;28;45398;-77
2022/01/12 06:54:12;;;;;;;;;23.25;22.00;;;;;1.42;86.44;103319.97;4999104;28;46342;-76
2022/01/12 06:56:37;;;;;;;;;26.50;23.50;;;;;1.37;86.34;103320.13;4983501;28;46195;-76
2022/01/12 06:59:04;;;;;;;;;28.75;21.50;;;;;1.43;86.57;103327.78;4997597;28;45470;-77
2022/01/12 07:01:30;;;;;;;;;21.75;21.00;;;;;1.46;86.93;103335.56;5004545;28;45269;-77
2022/01/12 07:03:56;;;;;;;;;28.00;21.25;;;;;1.51;86.57;103330.19;5008461;28;45521;-77
2022/01/12 07:06:21;;;;;;;;;25.50;25.00;;;;;1.53;85.91;103327.50;5000941;28;45289;-77
2022/01/12 07:08:47;;;;;;;;;33.25;28.25;;;;;1.50;86.51;103310.13;5014865;28;45632;-77
2022/01/12 07:11:12;;;;;;;;;31.50;28.25;;;;;1.53;86.20;103311.78;4998412;28;45450;-78
2022/01/12 07:13:38;;;;;;;;;36.50;34.00;;;;;1.52;85.98;103313.53;5003275;28;45327;-78
2022/01/12 07:16:03;;;;;;;;;24.00;23.25;;;;;1.53;86.34;103304.78;5002586;28;46296;-77
2022/01/12 07:18:29;;;;;;;;;31.00;22.00;;;;;1.54;85.72;103303.00;5013999;28;45355;-77
2022/01/12 07:20:58;;;;;;;;;26.50;22.25;;;;;1.48;86.21;103293.56;4999433;28;45326;-75
2022/01/12 07:23:25;;;;;;;;;35.25;31.00;;;;;1.53;86.02;103304.78;5014646;28;46392;-76
2022/01/12 07:25:50;;;;;;;;;32.50;27.00;;;;;1.46;86.62;103298.88;4999697;28;46634;-77
2022/01/12 07:28:16;;;;;;;;;34.00;30.00;;;;;1.50;85.91;103294.41;4997846;28;45890;-76
2022/01/12 07:30:42;;;;;;;;;36.25;29.75;;;;;1.66;85.71;103322.69;4999337;28;45367;-76
2022/01/12 07:33:07;;;;;;;;;37.25;30.75;;;;;1.62;86.55;103325.41;5030782;28;46964;-76
2022/01/12 07:35:33;;;;;;;;;36.00;32.50;;;;;1.53;86.12;103338.84;4999140;28;45397;-76
2022/01/12 07:37:58;;;;;;;;;42.25;34.00;;;;;1.40;87.52;103327.91;4999035;28;45356;-77
2022/01/12 07:40:23;;;;;;;;;32.50;28.00;;;;;1.46;86.31;103332.94;4999219;28;45446;-77
2022/01/12 07:42:51;;;;;;;;;27.50;24.50;;;;;1.52;86.10;103342.38;4999056;28;45366;-76
2022/01/12 07:45:17;;;;;;;;;31.50;30.50;;;;;1.38;86.14;103325.31;4995998;28;47409;-76
2022/01/12 07:47:43;;;;;;;;;30.00;28.00;;;;;1.48;86.76;103351.25;4998633;28;45214;-77
2022/01/12 07:50:09;;;;;;;;;38.00;32.25;;;;;1.51;86.04;103357.25;4998877;28;45251;-77
2022/01/12 07:52:35;;;;;;;;;28.50;27.00;;;;;1.53;86.17;103366.81;5014299;28;47188;-76
2022/01/12 07:55:02;;;;;;;;;28.25;27.00;;;;;1.56;86.09;103364.94;5000205;28;46590;-77
2022/01/12 07:57:28;;;;;;;;;30.75;26.75;;;;;1.51;86.23;103357.25;5018288;28;45387;-76
2022/01/12 07:59:53;;;;;;;;;38.00;30.00;;;;;1.52;86.01;103355.47;5018795;28;45290;-77
2022/01/12 08:02:19;;;;;;;;;27.50;25.25;;;;;1.50;86.99;103370.41;5018609;28;45358;-75
2022/01/12 08:04:44;;;;;;;;;33.00;31.50;;;;;1.48;85.64;103373.09;5018524;28;45372;-76
2022/01/12 08:07:10;;;;;;;;;39.00;32.25;;;;;1.56;86.48;103374.59;5018614;28;45327;-76
2022/01/12 08:09:41;;;;;;;;;41.25;36.25;;;;;1.56;85.93;103391.16;4998128;28;45515;-76
2022/01/12 08:12:07;;;;;;;;;37.75;33.00;;;;;1.41;86.16;103383.81;5001663;28;45360;-76
2022/01/12 08:14:32;;;;;;;;;36.25;30.75;;;;;1.41;85.82;103404.78;4999538;28;45391;-77
2022/01/12 08:16:58;;;;;;;;;32.50;31.00;;;;;1.34;86.54;103404.97;4999634;28;45488;-76
2022/01/12 08:19:25;;;;;;;;;34.75;34.00;;;;;1.37;86.28;103404.88;5020535;28;45445;-76
2022/01/12 08:21:50;;;;;;;;;31.50;26.50;;;;;1.29;86.32;103391.16;5021673;28;45540;-77
2022/01/12 08:24:16;;;;;;;;;25.75;23.75;;;;;1.38;86.28;103416.22;5008780;28;45366;-76
2022/01/12 08:26:42;;;;;;;;;26.00;20.25;;;;;1.41;86.59;103416.13;5001826;28;45313;-77
2022/01/12 08:29:10;;;;;;;;;20.25;16.75;;;;;1.48;86.81;103425.50;5002084;28;45210;-76
2022/01/12 08:31:35;;;;;;;;;20.75;17.50;;;;;1.42;86.27;103412.59;5001590;28;45327;-76
2022/01/12 08:34:01;;;;;;;;;25.50;22.00;;;;;1.48;86.08;103420.25;5001561;28;45284;-76
2022/01/12 08:36:26;;;;;;;;;21.75;19.75;;;;;1.53;86.65;103427.13;5000403;28;45191;-76
2022/01/12 08:38:52;;;;;;;;;18.00;18.00;;;;;1.45;86.36;103412.50;5001760;28;45214;-76
2022/01/12 08:41:17;;;;;;;;;21.25;18.25;;;;;1.53;85.96;103433.22;5016788;28;45965;-76
2022/01/12 08:43:42;;;;;;;;;20.25;17.00;;;;;1.53;86.03;103437.59;5001187;28;45315;-77
2022/01/12 08:46:09;;;;;;;;;16.75;15.75;;;;;1.47;85.44;103443.91;5031562;28;45366;-76
2022/01/12 08:48:35;;;;;;;;;22.00;21.25;;;;;1.49;85.52;103455.19;5001386;28;45913;-76
2022/01/12 08:51:02;;;;;;;;;21.75;19.75;;;;;1.51;85.44;103467.38;5033269;28;45447;-77
2022/01/12 08:53:27;;;;;;;;;27.75;25.75;;;;;1.52;85.28;103449.84;5001513;28;45417;-76
2022/01/12 08:55:53;;;;;;;;;20.00;20.00;;;;;1.60;85.58;103453.09;4999952;28;45191;-77
2022/01/12 08:58:18;;;;;;;;;19.50;19.50;;;;;1.55;85.43;103462.88;5001542;28;45268;-77
2022/01/12 09:00:44;;;;;;;;;22.50;21.75;;;;;1.55;85.87;103475.13;5000035;28;45880;-76
2022/01/12 09:03:09;;;;;;;;;22.75;20.75;;;;;1.58;85.73;103477.63;5016209;28;47960;-76
2022/01/12 09:05:34;;;;;;;;;26.00;25.50;;;;;1.61;85.28;103477.53;5001447;28;45321;-77
2022/01/12 09:08:00;;;;;;;;;24.00;20.25;;;;;1.52;85.02;103462.97;5001219;28;45242;-77
2022/01/12 09:10:25;;;;;;;;;15.00;15.00;;;;;1.59;85.41;103474.97;5032965;28;45912;-78
2022/01/12 09:12:51;;;;;;;;;20.25;20.25;;;;;1.63;84.98;103474.00;5015554;28;48036;-77
2022/01/12 09:15:17;;;;;;;;;14.50;14.00;;;;;1.75;84.99;103487.63;5003667;28;45229;-77
2022/01/12 09:17:44;;;;;;;;;30.75;26.75;;;;;1.75;84.25;103485.00;5007152;28;45370;-77
2022/01/12 09:20:10;;;;;;;;;22.75;18.75;;;;;1.87;84.58;103502.97;5011080;28;47119;-76
2022/01/12 09:22:37;;;;;;;;;26.50;20.00;;;;;1.88;84.37;103504.69;5004487;28;46243;-76
2022/01/12 09:25:05;;;;;;;;;23.00;21.00;;;;;1.91;84.34;103516.84;5021890;28;45279;-76
2022/01/12 09:27:31;;;;;;;;;26.75;24.50;;;;;1.84;83.87;103500.44;5003635;28;45174;-76
2022/01/12 09:29:56;;;;;;;;;23.75;18.25;;;;;1.89;85.22;103521.28;5016817;28;46113;-76
2022/01/12 09:32:22;;;;;;;;;32.75;31.00;;;;;1.88;84.31;103523.03;5003959;28;45380;-76
2022/01/12 09:34:47;;;;;;;;;29.75;27.75;;;;;1.89;84.77;103511.63;5017011;28;45816;-76
2022/01/12 09:37:14;;;;;;;;;23.50;22.00;;;;;1.89;84.54;103497.69;5001316;28;45445;-76
2022/01/12 09:39:40;;;;;;;;;27.25;24.25;;;;;2.01;84.97;103527.91;5000532;28;45321;-76
2022/01/12 09:42:06;;;;;;;;;19.25;19.25;;;;;2.06;84.78;103539.09;5000753;28;46051;-76
2022/01/12 09:44:34;;;;;;;;;23.50;22.00;;;;;2.12;84.67;103548.53;5016127;28;45346;-77
2022/01/12 09:47:01;;;;;;;;;29.00;25.00;;;;;2.12;84.46;103549.41;4983994;28;45230;-77
2022/01/12 09:49:27;;;;;;;;;34.50;29.50;;;;;2.02;83.95;103534.88;4998201;28;45235;-76
2022/01/12 09:51:52;;;;;;;;;26.00;22.75;;;;;2.06;84.17;103548.75;5000229;28;46489;-76
2022/01/12 09:54:19;;;;;;;;;30.75;28.50;;;;;2.18;83.88;103556.22;5000373;28;45448;-76
2022/01/12 09:56:45;;;;;;;;;27.75;26.50;;;;;2.19;84.74;103557.09;5015920;28;45408;-76
2022/01/12 09:59:10;;;;;;;;;32.00;28.00;;;;;2.10;84.15;103545.97;5000839;28;45313;-76
2022/01/12 10:01:43;;;;;;;;;37.25;29.25;;;;;2.16;85.31;103550.19;5000930;28;46174;-76
2022/01/12 10:04:15;;;;;;;;;27.75;27.25;;;;;2.27;84.79;103560.31;4995876;28;45405;-76
2022/01/12 10:06:45;;;;;;;;;26.00;23.50;;;;;2.32;83.96;103561.03;4996762;28;45380;-79
2022/01/12 10:09:12;;;;;;;;;30.50;24.25;;;;;2.41;84.53;103565.13;4998428;28;45669;-76
2022/01/12 10:11:54;;;;;;;;;26.75;23.00;;;;;2.51;84.26;103561.28;4998509;28;46102;-75
2022/01/12 10:14:21;;;;;;;;;35.00;29.50;;;;;2.45;84.34;103542.25;4997631;28;45424;-76
2022/01/12 10:16:58;;;;;;;;;30.75;24.25;;;;;2.55;84.84;103559.41;5013940;28;45461;-76
2022/01/12 10:19:32;;;;;;;;;36.25;35.00;;;;;2.50;84.17;103541.19;5017614;28;45543;-76
2022/01/12 10:21:59;;;;;;;;;38.00;32.00;;;;;2.61;83.69;103558.34;5005679;28;45385;-76
2022/01/12 10:24:26;;;;;;;;;32.25;30.00;;;;;2.65;83.42;103552.94;5001980;28;45265;-76
2022/01/12 10:26:52;;;;;;;;;33.75;32.00;;;;;2.67;84.00;103537.13;5008555;28;46489;-76
2022/01/12 10:29:19;;;;;;;;;36.50;33.00;;;;;2.70;83.95;103554.56;5010017;28;45482;-77
2022/01/12 10:31:49;;;;;;;;;31.50;30.50;;;;;2.74;83.84;103549.16;4999025;28;45521;-77
2022/01/12 10:34:16;;;;;;;;;32.75;28.25;;;;;2.80;83.74;103545.44;5013739;28;45377;-76
2022/01/12 10:36:44;;;;;;;;;37.00;34.75;;;;;2.87;84.25;103546.94;5031902;28;45367;-76
2022/01/12 10:39:12;;;;;;;;;23.75;22.75;;;;;2.97;83.26;103550.13;5000409;28;45454;-76
2022/01/12 10:41:56;;;;;;;;;32.25;29.75;;;;;3.03;83.11;103549.03;4997422;28;45236;-77
2022/01/12 10:44:23;;;;;;;;;37.50;31.25;;;;;3.05;83.13;103536.69;4997181;28;45366;-77
2022/01/12 10:46:50;;;;;;;;;36.75;31.25;;;;;3.21;82.71;103546.66;5004693;28;45268;-77
2022/01/12 10:49:20;;;;;;;;;32.75;29.50;;;;;3.34;82.84;103545.28;5015954;28;47033;-76
2022/01/12 10:51:54;;;;;;;;;27.50;25.00;;;;;3.37;82.87;103541.66;5004804;28;45371;-76
2022/01/12 10:54:21;;;;;;;;;30.75;26.50;;;;;3.46;82.31;103545.72;5002275;28;45972;-77
2022/01/12 10:56:46;;;;;;;;;37.75;31.50;;;;;3.39;82.97;103531.97;5000297;28;45291;-77
2022/01/12 10:59:17;;;;;;;;;30.25;27.25;;;;;3.61;82.31;103563.56;5001602;28;45346;-78
2022/01/12 11:01:42;;;;;;;;;33.75;32.00;;;;;3.60;82.87;103553.97;5000967;28;45418;-77
2022/01/12 11:04:09;;;;;;;;;25.50;25.50;;;;;3.75;82.81;103551.66;5015730;28;45360;-79
2022/01/12 11:06:34;;;;;;;;;33.00;30.75;;;;;3.81;81.86;103548.78;4999721;28;45807;-78
2022/01/12 11:09:00;;;;;;;;;37.00;34.25;;;;;3.92;82.66;103567.63;4997235;28;45563;-77
2022/01/12 11:11:26;;;;;;;;;31.50;29.75;;;;;4.05;82.44;103567.16;4999338;28;46199;-78
2022/01/12 11:13:52;;;;;;;;;28.50;27.75;;;;;4.08;82.18;103550.38;4998440;28;46450;-77
2022/01/12 11:16:25;;;;;;;;;37.00;30.50;;;;;4.12;81.54;103538.78;4999574;28;45302;-76
2022/01/12 11:18:54;;;;;;;;;30.00;27.75;;;;;4.08;81.62;103527.56;5013351;28;45565;-76
2022/01/12 11:21:43;;;;;;;;;29.25;28.75;;;;;4.29;81.12;103556.53;5019115;28;45357;-75
2022/01/12 11:24:15;;;;;;;;;26.25;23.50;;;;;4.28;80.88;103555.69;5019265;28;45318;-76
2022/01/12 11:26:49;;;;;;;;;31.75;29.25;;;;;4.20;81.12;103542.00;5020507;28;45299;-76
2022/01/12 11:29:27;;;;;;;;;35.00;31.25;;;;;4.37;81.40;103551.81;5018906;28;47274;-76
2022/01/12 11:32:03;;;;;;;;;32.25;32.25;;;;;4.44;81.10;103546.28;5020571;28;45364;-75
2022/01/12 11:34:28;;;;;;;;;33.75;29.25;;;;;4.51;80.95;103540.69;5019634;28;45620;-77
2022/01/12 11:36:55;;;;;;;;;33.25;30.50;;;;;4.49;80.50;103539.91;5019244;28;45307;-76
2022/01/12 11:39:22;;;;;;;;;40.25;32.75;;;;;4.55;80.76;103544.91;5019013;28;45577;-76
2022/01/12 11:41:48;;;;;;;;;29.75;29.00;;;;;4.53;80.57;103535.38;5020628;28;45263;-76
2022/01/12 11:44:16;;;;;;;;;29.50;29.50;;;;;4.56;80.35;103535.25;5019716;28;45325;-76
2022/01/12 11:46:53;;;;;;;;;23.25;21.75;;;;;4.64;79.28;103537.56;5022010;28;45437;-77
2022/01/12 11:49:37;;;;;;;;;29.25;28.25;;;;;4.65;80.15;103528.72;5021083;28;46160;-76
2022/01/12 11:52:26;;;;;;;;;29.00;26.00;;;;;4.68;80.82;103525.94;5024229;28;48201;-75
2022/01/12 11:55:13;;;;;;;;;28.75;26.25;;;;;4.72;80.99;103521.38;5031865;28;45328;-77
2022/01/12 11:57:42;;;;;;;;;33.75;26.00;;;;;4.73;80.71;103508.16;5012201;28;45262;-76
2022/01/12 12:00:17;;;;;;;;;33.75;29.75;;;;;4.82;80.75;103524.50;5010021;28;45238;-76
2022/01/12 12:02:49;;;;;;;;;31.25;26.00;;;;;4.78;80.69;103516.72;5014236;28;48226;-76
2022/01/12 12:05:23;;;;;;;;;30.00;27.75;;;;;4.83;80.52;103519.16;5021971;28;44736;-75
2022/01/12 12:08:22;;;;;;;;;23.75;22.75;;;;;4.90;80.27;103525.88;5007820;28;45410;-76
2022/01/12 12:10:52;;;;;;;;;27.00;23.75;;;;;4.89;80.06;103516.25;5002902;28;45452;-76
2022/01/12 12:13:21;;;;;;;;;30.75;27.25;;;;;4.98;80.52;103522.91;5009241;28;45576;-76
2022/01/12 12:15:46;;;;;;;;;23.50;22.25;;;;;4.97;80.40;103517.69;5008156;28;45502;-77
2022/01/12 12:18:12;;;;;;;;;32.00;31.25;;;;;5.01;80.40;103512.22;5016994;28;45205;-77
2022/01/12 12:20:37;;;;;;;;;32.75;28.50;;;;;5.14;79.94;103523.06;5030398;28;45504;-77
2022/01/12 12:23:03;;;;;;;;;34.75;31.25;;;;;5.15;80.00;103524.75;5027398;28;47979;-78
2022/01/12 12:25:31;;;;;;;;;27.75;25.75;;;;;5.22;79.97;103527.13;5013452;28;45456;-77
2022/01/12 12:28:02;;;;;;;;;36.75;31.50;;;;;5.23;80.14;103510.38;5013650;28;45346;-77
2022/01/12 12:30:29;;;;;;;;;32.75;29.00;;;;;5.32;79.70;103512.59;5014406;28;45396;-77
2022/01/12 12:33:16;;;;;;;;;32.50;31.75;;;;;5.30;79.16;103506.53;5013222;28;45677;-77
2022/01/12 12:35:44;;;;;;;;;33.50;29.50;;;;;5.25;79.17;103482.16;5012753;28;45302;-76
2022/01/12 12:38:11;;;;;;;;;39.25;34.75;;;;;5.45;79.58;103504.13;5043232;28;45344;-77